createdAt,value
2023-04-28T00:00:13.572Z,80.29
2023-04-28T00:02:59.178Z,80.27
2023-04-28T00:05:44.934Z,80.07
2023-04-28T00:08:30.462Z,80.07
2023-04-28T00:11:15.852Z,80.39
2023-04-28T00:14:01.494Z,80.85
2023-04-28T00:16:46.917Z,81.89
2023-04-28T00:19:32.589Z,81.86
2023-04-28T00:22:18.695Z,82.30
2023-04-28T00:25:05.183Z,81.93
2023-04-28T00:27:51.173Z,81.97
2023-04-28T00:30:36.834Z,81.09
2023-04-28T00:33:22.425Z,80.73
2023-04-28T00:36:08.620Z,80.75
2023-04-28T00:38:53.957Z,81.37
2023-04-28T00:41:39.734Z,81.16
2023-04-28T00:44:25.163Z,81.07
2023-04-28T00:47:11.708Z,81.28
2023-04-28T00:49:57.776Z,81.39
2023-04-28T00:52:43.361Z,82.38
2023-04-28T00:55:31.962Z,84.00
2023-04-28T00:58:17.638Z,85.48
2023-04-28T01:01:07.920Z,85.82
2023-04-28T01:03:53.825Z,86.41
2023-04-28T01:06:41.593Z,86.01
2023-04-28T01:09:27.074Z,87.25
2023-04-28T01:12:12.586Z,87.16
2023-04-28T01:14:58.608Z,87.21
2023-04-28T01:17:45.780Z,87.42
2023-04-28T01:20:31.352Z,87.92
2023-04-28T01:23:17.700Z,87.15
2023-04-28T01:26:03.224Z,86.91
2023-04-28T01:28:48.688Z,87.72
2023-04-28T01:31:34.036Z,88.59
2023-04-28T01:34:19.816Z,88.95
2023-04-28T01:37:05.229Z,89.22
2023-04-28T01:39:50.597Z,88.82
2023-04-28T01:42:36.269Z,89.67
2023-04-28T01:45:21.647Z,90.20
2023-04-28T01:48:07.131Z,90.29
2023-04-28T01:50:52.864Z,90.67
2023-04-28T01:53:38.276Z,91.65
2023-04-28T01:56:24.070Z,91.73
2023-04-28T01:59:09.379Z,91.45
2023-04-28T02:01:54.937Z,91.95
2023-04-28T02:04:40.818Z,92.42
2023-04-28T02:07:26.333Z,92.07
2023-04-28T02:10:12.000Z,92.96
2023-04-28T02:12:57.394Z,91.41
2023-04-28T02:15:43.312Z,91.76
2023-04-28T02:18:28.738Z,91.82
2023-04-28T02:21:14.123Z,91.21
2023-04-28T02:23:59.633Z,90.98
2023-04-28T02:26:45.015Z,91.23
2023-04-28T02:29:30.822Z,91.56
2023-04-28T02:32:16.263Z,91.98
2023-04-28T02:35:02.099Z,90.65
2023-04-28T02:37:47.485Z,89.65
2023-04-28T02:40:33.002Z,88.33
2023-04-28T02:43:18.623Z,88.13
2023-04-28T02:46:04.585Z,87.41
2023-04-28T02:48:49.932Z,87.12
2023-04-28T02:51:35.511Z,87.75
2023-04-28T02:54:29.411Z,87.00
2023-04-28T02:57:15.061Z,87.12
2023-04-28T03:00:00.630Z,85.79
2023-04-28T03:02:48.738Z,85.61
2023-04-28T03:05:34.311Z,84.97
2023-04-28T03:08:20.903Z,84.04
2023-04-28T03:11:06.344Z,83.26
2023-04-28T03:13:51.722Z,81.53
2023-04-28T03:16:38.289Z,81.77
2023-04-28T03:19:24.245Z,80.55
2023-04-28T03:22:09.966Z,80.80
2023-04-28T03:24:55.710Z,79.67
2023-04-28T03:27:41.247Z,79.63
2023-04-28T03:30:26.985Z,79.23
2023-04-28T03:33:12.549Z,79.32
2023-04-28T03:35:57.813Z,78.73
2023-04-28T03:38:43.866Z,79.05
2023-04-28T03:41:29.349Z,79.23
2023-04-28T03:44:15.162Z,79.48
2023-04-28T03:47:01.406Z,79.72
2023-04-28T03:49:46.729Z,79.91
2023-04-28T03:52:32.359Z,79.39
2023-04-28T03:55:17.922Z,79.49
2023-04-28T03:58:03.600Z,80.15
2023-04-28T04:00:49.203Z,80.22
2023-04-28T04:03:34.834Z,79.58
2023-04-28T04:06:21.973Z,79.59
2023-04-28T04:09:07.178Z,80.23
2023-04-28T04:11:52.906Z,79.48
2023-04-28T04:14:38.435Z,79.53
2023-04-28T04:17:24.053Z,79.54
2023-04-28T04:20:10.023Z,79.21
2023-04-28T04:22:55.492Z,79.25
2023-04-28T04:25:41.114Z,79.63
2023-04-28T04:28:26.630Z,78.78
2023-04-28T04:31:12.355Z,78.27
2023-04-28T04:33:58.009Z,78.04
2023-04-28T04:36:44.136Z,77.80
2023-04-28T04:39:29.707Z,77.52
2023-04-28T04:42:25.013Z,77.19
2023-04-28T04:45:12.164Z,76.53
2023-04-28T04:47:58.054Z,76.97
2023-04-28T04:50:44.401Z,76.34
2023-04-28T04:53:29.865Z,75.72
2023-04-28T04:56:15.415Z,75.36
2023-04-28T04:59:00.876Z,75.09
2023-04-28T05:01:47.242Z,74.85
2023-04-28T05:04:32.852Z,74.98
2023-04-28T05:07:18.545Z,75.12
2023-04-28T05:10:04.548Z,73.54
2023-04-28T05:12:50.523Z,73.55
2023-04-28T05:15:36.098Z,73.38
2023-04-28T05:18:21.724Z,72.43
2023-04-28T05:21:07.128Z,71.72
2023-04-28T05:23:53.724Z,71.28
2023-04-28T05:26:39.160Z,70.45
2023-04-28T05:29:24.976Z,68.59
2023-04-28T05:32:10.595Z,66.54
2023-04-28T05:34:56.492Z,64.07
2023-04-28T05:37:43.559Z,62.60
2023-04-28T05:40:29.133Z,60.88
2023-04-28T05:43:14.736Z,61.33
2023-04-28T05:46:00.764Z,60.34
2023-04-28T05:48:46.949Z,58.21
2023-04-28T05:51:33.591Z,58.06
2023-04-28T05:54:19.176Z,57.22
2023-04-28T05:57:05.111Z,56.89
2023-04-28T05:59:50.658Z,55.74
2023-04-28T06:02:36.192Z,55.34
2023-04-28T06:05:22.902Z,54.95
2023-04-28T06:08:08.877Z,53.15
2023-04-28T06:10:54.248Z,52.77
2023-04-28T06:13:39.717Z,52.49
2023-04-28T06:16:25.653Z,54.08
2023-04-28T06:19:11.749Z,54.03
2023-04-28T06:21:57.162Z,53.19
2023-04-28T06:24:44.003Z,51.26
2023-04-28T06:27:32.676Z,50.77
2023-04-28T06:30:20.341Z,49.66
2023-04-28T06:33:05.645Z,48.11
2023-04-28T06:35:51.866Z,46.62
2023-04-28T06:38:37.487Z,46.03
2023-04-28T06:41:23.175Z,45.87
2023-04-28T06:44:08.737Z,45.75
2023-04-28T06:46:54.292Z,45.07
2023-04-28T06:49:39.844Z,45.15
2023-04-28T06:52:36.815Z,45.26
2023-04-28T06:55:24.850Z,44.73
2023-04-28T06:58:11.288Z,44.24
2023-04-28T07:00:56.585Z,44.27
2023-04-28T07:03:42.176Z,44.21
2023-04-28T07:06:28.571Z,44.08
2023-04-28T07:09:15.861Z,43.08
2023-04-28T07:12:01.739Z,42.54
2023-04-28T07:14:47.372Z,42.90
2023-04-28T07:17:32.784Z,42.56
2023-04-28T07:20:18.348Z,41.73
2023-04-28T07:23:03.742Z,42.38
2023-04-28T07:25:49.283Z,41.68
2023-04-28T07:28:34.939Z,41.12
2023-04-28T07:31:21.741Z,40.78
2023-04-28T07:34:07.573Z,41.21
2023-04-28T07:36:53.134Z,40.92
2023-04-28T07:39:40.419Z,40.46
2023-04-28T07:42:26.054Z,41.03
2023-04-28T07:45:11.782Z,40.54
2023-04-28T07:47:57.621Z,41.42
2023-04-28T07:50:43.284Z,40.85
2023-04-28T07:53:29.084Z,41.13
2023-04-28T07:56:14.571Z,41.53
2023-04-28T07:59:00.357Z,40.09
2023-04-28T08:01:46.430Z,40.91
2023-04-28T08:04:33.947Z,40.73
2023-04-28T08:07:20.400Z,41.05
2023-04-28T08:10:06.480Z,41.83
2023-04-28T08:12:51.875Z,41.74
2023-04-28T08:15:37.534Z,41.83
2023-04-28T08:18:23.563Z,41.86
2023-04-28T08:21:09.869Z,41.20
2023-04-28T08:23:55.311Z,42.24
2023-04-28T08:26:40.733Z,40.51
2023-04-28T08:29:26.943Z,40.54
2023-04-28T08:32:12.276Z,39.38
2023-04-28T08:34:57.774Z,39.15
2023-04-28T08:37:43.353Z,38.77
2023-04-28T08:40:31.253Z,37.71
2023-04-28T08:43:16.739Z,37.43
2023-04-28T08:46:07.630Z,38.61
2023-04-28T08:48:59.509Z,39.83
2023-04-28T08:51:57.425Z,38.75
2023-04-28T08:54:44.184Z,39.28
2023-04-28T08:57:39.230Z,39.12
2023-04-28T09:00:25.234Z,38.42
2023-04-28T09:03:11.122Z,39.21
2023-04-28T09:05:57.176Z,39.26
2023-04-28T09:08:42.914Z,38.94
2023-04-28T09:11:28.508Z,39.58
2023-04-28T09:14:14.400Z,39.31
2023-04-28T09:17:00.783Z,38.15
2023-04-28T09:19:46.594Z,37.88
2023-04-28T09:22:33.085Z,37.04
2023-04-28T09:25:21.221Z,38.16
2023-04-28T09:28:22.865Z,38.63
2023-04-28T09:31:23.164Z,39.60
2023-04-28T09:34:09.168Z,38.64
2023-04-28T09:36:54.649Z,37.36
2023-04-28T09:39:40.394Z,37.82
2023-04-28T09:42:38.604Z,35.85
2023-04-28T09:45:24.619Z,35.69
2023-04-28T09:48:13.555Z,35.14
2023-04-28T09:51:00.989Z,34.62
2023-04-28T09:53:47.389Z,33.66
2023-04-28T09:56:40.842Z,32.91
2023-04-28T09:59:28.516Z,34.32
2023-04-28T10:02:42.073Z,34.06
2023-04-28T10:05:25.496Z,35.09
2023-04-28T10:08:13.274Z,36.16
2023-04-28T10:10:59.180Z,36.71
2023-04-28T10:13:45.989Z,38.16
2023-04-28T10:16:32.992Z,39.05
2023-04-28T10:19:18.831Z,38.31
2023-04-28T10:22:46.015Z,38.46
2023-04-28T10:25:35.214Z,37.73
2023-04-28T10:28:20.844Z,38.42
2023-04-28T10:34:23.077Z,37.56
2023-04-28T10:37:11.491Z,38.70
2023-04-28T10:40:32.073Z,39.73
2023-04-28T10:43:30.526Z,39.55
2023-04-28T10:46:16.527Z,39.73
2023-04-28T10:49:02.641Z,40.13
2023-04-28T10:51:48.007Z,40.30
2023-04-28T10:54:33.560Z,40.50
2023-04-28T10:57:19.861Z,38.65
2023-04-28T11:00:28.414Z,36.60
2023-04-28T11:03:38.904Z,36.60
2023-04-28T11:06:35.437Z,37.25
2023-04-28T11:09:21.156Z,37.91
2023-04-28T11:12:10.508Z,39.31
2023-04-28T11:14:56.293Z,38.94
2023-04-28T11:17:42.202Z,39.08
2023-04-28T11:20:29.023Z,38.44
2023-04-28T11:23:14.718Z,38.68
2023-04-28T11:26:01.138Z,38.73
2023-04-28T11:28:50.935Z,38.65
2023-04-28T11:31:36.534Z,38.86
2023-04-28T11:34:22.384Z,39.57
2023-04-28T11:37:09.116Z,39.42
2023-04-28T11:39:54.595Z,39.33
2023-04-28T11:42:51.436Z,39.52
2023-04-28T11:45:37.572Z,38.19
2023-04-28T11:48:23.378Z,38.56
2023-04-28T11:51:09.621Z,38.81
2023-04-28T11:53:55.032Z,39.16
2023-04-28T11:56:42.349Z,39.62
2023-04-28T11:59:30.738Z,40.71
2023-04-28T12:02:17.881Z,41.06
2023-04-28T12:05:07.702Z,43.34
2023-04-28T12:07:53.410Z,47.90
2023-04-28T12:10:38.732Z,50.26
2023-04-28T12:13:24.185Z,50.78
2023-04-28T12:16:09.735Z,50.81
2023-04-28T12:18:59.281Z,48.97
2023-04-28T12:21:59.807Z,47.65
2023-04-28T12:24:46.106Z,47.06
2023-04-28T12:27:32.119Z,47.19
2023-04-28T12:30:20.779Z,47.04
2023-04-28T12:33:20.856Z,46.37
2023-04-28T12:36:06.670Z,47.61
2023-04-28T12:38:52.574Z,46.98
2023-04-28T12:41:38.650Z,46.25
2023-04-28T12:44:24.223Z,46.06
2023-04-28T12:47:11.116Z,45.50
2023-04-28T12:49:56.632Z,45.69
2023-04-28T12:52:42.105Z,45.31
2023-04-28T12:55:29.300Z,45.53
2023-04-28T12:58:15.007Z,45.32
2023-04-28T13:01:00.509Z,43.56
2023-04-28T13:03:47.670Z,44.48
2023-04-28T13:06:33.290Z,43.88
2023-04-28T13:09:18.717Z,44.30
2023-04-28T13:12:04.868Z,43.66
2023-04-28T13:14:51.041Z,43.49
2023-04-28T13:17:36.624Z,43.93
2023-04-28T13:20:22.215Z,41.77
2023-04-28T13:23:07.730Z,42.40
2023-04-28T13:25:53.002Z,42.13
2023-04-28T13:28:38.696Z,42.73
2023-04-28T13:31:24.715Z,42.45
2023-04-28T13:34:15.700Z,43.64
2023-04-28T13:37:01.151Z,43.87
2023-04-28T13:39:46.961Z,43.33
2023-04-28T13:42:32.261Z,43.62
2023-04-28T13:45:18.239Z,42.83
2023-04-28T13:48:04.788Z,42.85
2023-04-28T13:50:50.159Z,43.58
2023-04-28T13:53:38.246Z,44.18
2023-04-28T13:56:24.180Z,44.15
2023-04-28T13:59:09.807Z,45.52
2023-04-28T14:01:55.669Z,45.69
2023-04-28T14:04:48.245Z,46.64
2023-04-28T14:07:34.281Z,46.96
2023-04-28T14:10:19.779Z,46.19
2023-04-28T14:13:05.165Z,46.94
2023-04-28T14:15:59.194Z,46.57
2023-04-28T14:18:45.477Z,46.88
2023-04-28T14:21:31.068Z,46.89
2023-04-28T14:24:16.491Z,47.53
2023-04-28T14:27:01.835Z,48.02
2023-04-28T14:29:50.849Z,48.16
2023-04-28T14:32:39.794Z,47.97
2023-04-28T14:35:25.490Z,48.60
2023-04-28T14:38:10.987Z,48.52
2023-04-28T14:40:56.601Z,47.77
2023-04-28T14:43:41.900Z,47.92
2023-04-28T14:46:27.561Z,48.62
2023-04-28T14:49:12.876Z,48.60
2023-04-28T14:52:00.000Z,49.34
2023-04-28T14:54:45.581Z,49.63
2023-04-28T14:57:31.709Z,50.64
2023-04-28T15:00:17.632Z,51.04
2023-04-28T15:03:03.989Z,50.91
2023-04-28T15:05:49.488Z,52.01
2023-04-28T15:08:37.703Z,53.38
2023-04-28T15:11:23.517Z,53.20
2023-04-28T15:14:08.749Z,53.22
2023-04-28T15:16:54.517Z,53.48
2023-04-28T15:19:40.025Z,53.40
2023-04-28T15:22:25.776Z,54.71
2023-04-28T15:25:11.613Z,54.76
2023-04-28T15:27:57.133Z,54.82
2023-04-28T15:30:43.295Z,54.93
2023-04-28T15:33:28.996Z,57.61
2023-04-28T15:36:14.603Z,63.14
2023-04-28T15:39:00.153Z,64.50
2023-04-28T15:41:45.643Z,62.42
2023-04-28T15:44:31.098Z,67.20
2023-04-28T15:47:16.589Z,72.26
2023-04-28T15:50:02.275Z,71.02
2023-04-28T15:52:49.836Z,72.25
2023-04-28T15:55:36.048Z,70.88
2023-04-28T15:58:21.865Z,72.31
2023-04-28T16:01:07.470Z,70.01
2023-04-28T16:03:53.259Z,69.93
2023-04-28T16:06:39.130Z,66.04
2023-04-28T16:09:24.397Z,66.86
2023-04-28T16:12:10.038Z,66.64
2023-04-28T16:14:56.124Z,65.93
2023-04-28T16:17:41.751Z,66.29
2023-04-28T16:20:27.939Z,62.65
2023-04-28T16:23:14.225Z,62.40
2023-04-28T16:26:00.241Z,63.17
2023-04-28T16:28:45.947Z,61.79
2023-04-28T16:31:32.495Z,63.26
2023-04-28T16:34:19.354Z,63.74
2023-04-28T16:37:06.474Z,61.89
2023-04-28T16:39:52.487Z,62.38
2023-04-28T16:42:38.309Z,62.83
2023-04-28T16:45:23.887Z,62.88
2023-04-28T16:48:09.466Z,62.31
2023-04-28T16:50:54.948Z,62.65
2023-04-28T16:53:40.537Z,62.31
2023-04-28T16:56:26.254Z,62.46
2023-04-28T16:59:11.616Z,63.42
2023-04-28T17:01:58.025Z,62.94
2023-04-28T17:04:43.449Z,63.62
2023-04-28T17:07:29.038Z,64.03
2023-04-28T17:10:14.602Z,64.39
2023-04-28T17:13:00.413Z,64.86
2023-04-28T17:15:46.013Z,65.34
2023-04-28T17:18:31.586Z,66.01
2023-04-28T17:21:17.708Z,71.76
2023-04-28T17:24:03.238Z,76.33
2023-04-28T17:26:49.837Z,76.21
2023-04-28T17:29:35.316Z,74.80
2023-04-28T17:32:20.685Z,73.75
2023-04-28T17:35:06.812Z,74.15
2023-04-28T17:37:52.187Z,72.96
2023-04-28T17:40:37.837Z,71.69
2023-04-28T17:43:25.394Z,71.97
2023-04-28T17:46:12.233Z,71.24
2023-04-28T17:48:59.552Z,70.61
2023-04-28T17:51:45.098Z,70.95
2023-04-28T17:54:32.050Z,70.05
2023-04-28T17:57:18.229Z,69.24
2023-04-28T18:00:03.723Z,68.64
2023-04-28T18:02:49.112Z,67.63
2023-04-28T18:05:36.120Z,68.60
2023-04-28T18:08:21.953Z,67.61
2023-04-28T18:11:09.827Z,67.37
2023-04-28T18:13:55.319Z,69.16
2023-04-28T18:16:41.235Z,80.98
2023-04-28T18:19:28.500Z,95.17
2023-04-28T18:22:13.787Z,100.00
2023-04-28T18:24:59.714Z,100.00
2023-04-28T18:27:45.706Z,100.00
2023-04-28T18:30:40.053Z,100.00
2023-04-28T18:33:28.381Z,100.00
2023-04-28T18:36:13.946Z,100.00
2023-04-28T18:38:59.585Z,100.00
2023-04-28T18:41:45.077Z,100.00
2023-04-28T18:44:31.137Z,100.00
2023-04-28T18:47:17.034Z,100.00
2023-04-28T18:50:03.599Z,100.00
2023-04-28T18:52:49.011Z,100.00
2023-04-28T18:55:34.683Z,100.00
2023-04-28T18:58:20.156Z,100.00
2023-04-28T19:01:05.905Z,100.00
2023-04-28T19:03:52.443Z,100.00
2023-04-28T19:06:38.121Z,100.00
2023-04-28T19:09:23.521Z,100.00
2023-04-28T19:12:09.060Z,100.00
2023-04-28T19:14:55.446Z,100.00
2023-04-28T19:17:40.844Z,100.00
2023-04-28T19:20:26.611Z,100.00
2023-04-28T19:23:12.252Z,100.00
2023-04-28T19:25:58.898Z,100.00
2023-04-28T19:28:44.717Z,100.00
2023-04-28T19:31:30.147Z,100.00
2023-04-28T19:34:15.788Z,100.00
2023-04-28T19:37:01.500Z,100.00
2023-04-28T19:39:47.940Z,100.00
2023-04-28T19:42:35.039Z,100.00
2023-04-28T19:45:20.758Z,100.00
2023-04-28T19:48:06.863Z,100.00
2023-04-28T19:50:52.321Z,100.00
2023-04-28T19:53:40.515Z,100.00
2023-04-28T19:56:26.553Z,100.00
2023-04-28T19:59:11.965Z,100.00
2023-04-28T20:01:57.603Z,100.00
2023-04-28T20:04:43.440Z,100.00
2023-04-28T20:07:29.151Z,100.00
2023-04-28T20:10:15.618Z,100.00
2023-04-28T20:13:02.672Z,100.00
2023-04-28T20:15:48.562Z,100.00
2023-04-28T20:18:35.495Z,100.00
2023-04-28T20:21:21.211Z,100.00
2023-04-28T20:24:07.191Z,100.00
2023-04-28T20:26:54.393Z,100.00
2023-04-28T20:29:40.299Z,100.00
2023-04-28T20:32:25.853Z,100.00
2023-04-28T20:35:11.897Z,100.00
2023-04-28T20:37:57.893Z,100.00
2023-04-28T20:40:44.848Z,100.00
2023-04-28T20:43:30.308Z,100.00
2023-04-28T20:46:16.475Z,100.00
2023-04-28T20:49:02.181Z,100.00
2023-04-28T20:51:47.812Z,100.00
2023-04-28T20:54:35.791Z,100.00
2023-04-28T20:57:21.470Z,100.00
2023-04-28T21:00:08.646Z,100.00
2023-04-28T21:02:54.398Z,100.00
2023-04-28T21:05:40.033Z,100.00
2023-04-28T21:08:26.226Z,100.00
2023-04-28T21:11:13.058Z,100.00
2023-04-28T21:13:58.524Z,100.00
2023-04-28T21:16:44.265Z,100.00
2023-04-28T21:19:30.594Z,100.00
2023-04-28T21:22:16.542Z,100.00
2023-04-28T21:25:01.998Z,100.00
2023-04-28T21:27:47.566Z,100.00
2023-04-28T21:30:33.001Z,100.00
2023-04-28T21:33:18.389Z,100.00
2023-04-28T21:36:08.986Z,100.00
2023-04-28T21:38:54.784Z,100.00
2023-04-28T21:41:40.312Z,100.00
2023-04-28T21:44:25.946Z,100.00
2023-04-28T21:47:11.563Z,100.00
2023-04-28T21:49:57.466Z,100.00
2023-04-28T21:52:43.062Z,100.00
2023-04-28T21:55:28.538Z,100.00
2023-04-28T21:58:13.962Z,100.00
2023-04-28T22:00:59.812Z,100.00
2023-04-28T22:03:47.641Z,100.00
2023-04-28T22:06:33.421Z,100.00
2023-04-28T22:09:18.794Z,100.00
2023-04-28T22:12:04.585Z,100.00
2023-04-28T22:14:50.184Z,100.00
2023-04-28T22:17:35.794Z,100.00
2023-04-28T22:20:21.396Z,100.00
2023-04-28T22:23:06.677Z,100.00
2023-04-28T22:25:52.272Z,100.00
2023-04-28T22:28:37.734Z,100.00
2023-04-28T22:31:23.159Z,100.00
2023-04-28T22:34:09.957Z,100.00
2023-04-28T22:36:55.309Z,100.00
2023-04-28T22:39:40.829Z,100.00
2023-04-28T22:42:26.144Z,100.00
2023-04-28T22:45:12.049Z,100.00
2023-04-28T22:47:57.725Z,100.00
2023-04-28T22:50:45.972Z,100.00
2023-04-28T22:53:31.527Z,100.00
2023-04-28T22:56:17.119Z,100.00
2023-04-28T22:59:03.009Z,100.00
2023-04-28T23:01:48.895Z,100.00
2023-04-28T23:04:34.801Z,100.00
2023-04-28T23:07:20.580Z,100.00
2023-04-28T23:10:07.555Z,100.00
2023-04-28T23:12:53.120Z,100.00
2023-04-28T23:15:38.370Z,100.00
2023-04-28T23:18:23.881Z,100.00
2023-04-28T23:21:09.804Z,100.00
2023-04-28T23:23:55.292Z,100.00
2023-04-28T23:26:41.111Z,100.00
2023-04-28T23:29:26.606Z,100.00
2023-04-28T23:32:12.715Z,100.00
2023-04-28T23:34:58.845Z,100.00
2023-04-28T23:37:44.497Z,100.00
2023-04-28T23:40:30.149Z,100.00
2023-04-28T23:43:15.508Z,100.00
2023-04-28T23:46:01.229Z,100.00
2023-04-28T23:48:46.687Z,100.00
2023-04-28T23:51:32.318Z,100.00
2023-04-28T23:54:17.772Z,100.00
2023-04-28T23:57:03.400Z,100.00
2023-04-28T23:59:48.983Z,100.00
